Norient Star — 9HRV9 — position and weather

sailwx.info

Track history (hours):
 
Tides and Currents Weather Stations Pressure Air Temp Water Temp Dewpoint Dewpoint Depression Visibility Wind Speed Wind Dir Waves Ship Positions

Norient Star

Last reported at 2017-Nov-17 20:46 UTC. Time now 2017-Nov-21 12:10 UTC.
Position N 34°08' E 033°60'.

Length 180 m; draft 9.4 m.

Type: Tanker. MMSI: 249434000.

Date/timePositionNaut miles runAvg speedWind from/ knotsBaromVisibWave heightAir tempDewpointWater temp
2017-Nov-17 20:46N 34°08' E 033°60'411.7
2017-Nov-17 20:26N 34°09' E 033°55'4511.4
2017-Nov-17 16:31N 34°18' E 033°03'011.6
2017-Nov-17 16:28N 34°18' E 033°02'611.9
2017-Nov-17 15:59N 34°19' E 032°55'912.1
2017-Nov-17 15:16N 34°21' E 032°45'2311.8
2017-Nov-17 13:21N 34°26' E 032°18'411.6
2017-Nov-17 13:00N 34°27' E 032°13'1212.0
2017-Nov-17 11:59N 34°30' E 031°59'5411.5
2017-Nov-17 07:18N 34°45' E 030°56'411.8
2017-Nov-17 06:59N 34°47' E 030°52'711.9
2017-Nov-17 06:25N 34°49' E 030°45'27811.7
2017-Nov-16 06:34N 37°17' E 025°53'112.0
2017-Nov-16 06:31N 37°18' E 025°53'612.1
2017-Nov-16 06:00N 37°24' E 025°53'611.9
2017-Nov-16 05:30N 37°30' E 025°53'611.9
2017-Nov-16 05:01N 37°36' E 025°52'249 5.2
2017-Nov-14 05:29N 40°58' E 028°58'  
Track history (hours):
 
Tides and Currents Weather Stations Pressure Air Temp Water Temp Dewpoint Dewpoint Depression Visibility Wind Speed Wind Dir Waves Ship Positions

Norient Star

Last reported at 2017-Nov-17 20:46 UTC. Time now 2017-Nov-21 12:10 UTC.
Position N 34°08' E 033°60'.

Length 180 m; draft 9.4 m.

Type: Tanker. MMSI: 249434000.

Date/timePositionNaut miles runAvg speedWind from/ knotsBaromVisibWave heightAir tempDewpointWater temp
2017-Nov-17 20:46N 34°08' E 033°60'411.7
2017-Nov-17 20:26N 34°09' E 033°55'4511.4
2017-Nov-17 16:31N 34°18' E 033°03'011.6
2017-Nov-17 16:28N 34°18' E 033°02'611.9
2017-Nov-17 15:59N 34°19' E 032°55'912.1
2017-Nov-17 15:16N 34°21' E 032°45'2311.8
2017-Nov-17 13:21N 34°26' E 032°18'411.6
2017-Nov-17 13:00N 34°27' E 032°13'1212.0
2017-Nov-17 11:59N 34°30' E 031°59'5411.5
2017-Nov-17 07:18N 34°45' E 030°56'411.8
2017-Nov-17 06:59N 34°47' E 030°52'711.9
2017-Nov-17 06:25N 34°49' E 030°45'27811.7
2017-Nov-16 06:34N 37°17' E 025°53'112.0
2017-Nov-16 06:31N 37°18' E 025°53'612.1
2017-Nov-16 06:00N 37°24' E 025°53'611.9
2017-Nov-16 05:30N 37°30' E 025°53'611.9
2017-Nov-16 05:01N 37°36' E 025°52'249 5.2
2017-Nov-14 05:29N 40°58' E 028°58'  

Dump ship's entire track history